sensor_id;sensor_type;location;lat;lon;timestamp;pressure;altitude;pressure_sealevel;temperature;humidity
73558;BME280;61829;53.286;10.434;2023-05-10T00:00:21;100616.69;;;13.82;49.10
73558;BME280;61829;53.286;10.434;2023-05-10T00:03:07;100608.97;;;13.79;49.54
73558;BME280;61829;53.286;10.434;2023-05-10T00:05:33;100618.34;;;13.77;49.36
73558;BME280;61829;53.286;10.434;2023-05-10T00:07:59;100606.88;;;13.75;49.88
73558;BME280;61829;53.286;10.434;2023-05-10T00:10:25;100599.00;;;13.73;49.92
73558;BME280;61829;53.286;10.434;2023-05-10T00:12:51;100602.94;;;13.70;49.98
73558;BME280;61829;53.286;10.434;2023-05-10T00:15:17;100594.81;;;13.70;49.79
73558;BME280;61829;53.286;10.434;2023-05-10T00:17:42;100592.31;;;13.69;50.02
73558;BME280;61829;53.286;10.434;2023-05-10T00:20:14;100584.44;;;13.67;49.92
73558;BME280;61829;53.286;10.434;2023-05-10T00:22:44;100584.63;;;13.66;49.94
73558;BME280;61829;53.286;10.434;2023-05-10T00:25:12;100584.00;;;13.64;50.18
73558;BME280;61829;53.286;10.434;2023-05-10T00:27:37;100584.22;;;13.62;50.28
73558;BME280;61829;53.286;10.434;2023-05-10T00:30:04;100577.34;;;13.60;50.61
73558;BME280;61829;53.286;10.434;2023-05-10T00:32:30;100571.09;;;13.59;50.29
73558;BME280;61829;53.286;10.434;2023-05-10T00:34:56;100571.31;;;13.58;50.49
73558;BME280;61829;53.286;10.434;2023-05-10T00:37:21;100576.94;;;13.56;50.50
73558;BME280;61829;53.286;10.434;2023-05-10T00:39:47;100572.97;;;13.52;50.96
73558;BME280;61829;53.286;10.434;2023-05-10T00:42:13;100577.56;;;13.52;50.97
73558;BME280;61829;53.286;10.434;2023-05-10T00:44:40;100566.34;;;13.48;50.71
73558;BME280;61829;53.286;10.434;2023-05-10T00:47:06;100566.53;;;13.46;50.81
73558;BME280;61829;53.286;10.434;2023-05-10T00:49:32;100569.22;;;13.46;50.78
73558;BME280;61829;53.286;10.434;2023-05-10T00:51:58;100563.41;;;13.43;50.99
73558;BME280;61829;53.286;10.434;2023-05-10T00:54:24;100565.28;;;13.42;51.11
73558;BME280;61829;53.286;10.434;2023-05-10T00:56:51;100559.25;;;13.40;50.90
73558;BME280;61829;53.286;10.434;2023-05-10T00:59:17;100560.31;;;13.39;51.17
73558;BME280;61829;53.286;10.434;2023-05-10T01:01:44;100558.84;;;13.37;51.41
73558;BME280;61829;53.286;10.434;2023-05-10T01:04:12;100550.28;;;13.33;51.37
73558;BME280;61829;53.286;10.434;2023-05-10T01:06:41;100553.66;;;13.29;51.94
73558;BME280;61829;53.286;10.434;2023-05-10T01:09:08;100544.22;;;13.24;51.84
73558;BME280;61829;53.286;10.434;2023-05-10T01:11:56;100546.53;;;13.21;52.17
73558;BME280;61829;53.286;10.434;2023-05-10T01:14:22;100546.13;;;13.17;52.34
73558;BME280;61829;53.286;10.434;2023-05-10T01:16:49;100545.91;;;13.12;52.23
73558;BME280;61829;53.286;10.434;2023-05-10T01:43:31;100534.47;;;12.84;53.43
73558;BME280;61829;53.286;10.434;2023-05-10T01:46:06;100545.72;;;12.80;53.74
73558;BME280;61829;53.286;10.434;2023-05-10T01:48:42;100548.19;;;12.75;54.36
73558;BME280;61829;53.286;10.434;2023-05-10T01:51:15;100556.72;;;12.72;54.22
73558;BME280;61829;53.286;10.434;2023-05-10T01:53:43;100546.50;;;12.68;54.56
73558;BME280;61829;53.286;10.434;2023-05-10T01:56:11;100553.38;;;12.64;54.53
73558;BME280;61829;53.286;10.434;2023-05-10T01:58:39;100558.97;;;12.62;54.95
73558;BME280;61829;53.286;10.434;2023-05-10T02:01:10;100562.91;;;12.59;54.76
73558;BME280;61829;53.286;10.434;2023-05-10T02:03:36;100562.50;;;12.56;55.33
73558;BME280;61829;53.286;10.434;2023-05-10T02:06:04;100560.22;;;12.53;55.45
73558;BME280;61829;53.286;10.434;2023-05-10T02:08:31;100561.84;;;12.47;55.43
73558;BME280;61829;53.286;10.434;2023-05-10T02:10:59;100556.84;;;12.44;55.44
73558;BME280;61829;53.286;10.434;2023-05-10T02:13:26;100567.88;;;12.43;55.71
73558;BME280;61829;53.286;10.434;2023-05-10T02:15:54;100557.28;;;12.41;55.94
73558;BME280;61829;53.286;10.434;2023-05-10T02:18:22;100570.16;;;12.39;55.98
73558;BME280;61829;53.286;10.434;2023-05-10T02:20:49;100562.66;;;12.34;56.07
73558;BME280;61829;53.286;10.434;2023-05-10T02:23:18;100543.13;;;12.32;56.03
73558;BME280;61829;53.286;10.434;2023-05-10T02:25:47;100549.13;;;12.28;56.24
73558;BME280;61829;53.286;10.434;2023-05-10T02:28:14;100549.53;;;12.25;56.58
73558;BME280;61829;53.286;10.434;2023-05-10T02:30:41;100557.22;;;12.21;56.87
73558;BME280;61829;53.286;10.434;2023-05-10T02:33:08;100551.56;;;12.16;56.88
73558;BME280;61829;53.286;10.434;2023-05-10T02:35:35;100545.75;;;12.12;56.84
73558;BME280;61829;53.286;10.434;2023-05-10T02:38:02;100552.38;;;12.10;57.06
73558;BME280;61829;53.286;10.434;2023-05-10T02:40:28;100540.94;;;12.08;57.16
73558;BME280;61829;53.286;10.434;2023-05-10T02:42:56;100549.88;;;12.08;57.25
73558;BME280;61829;53.286;10.434;2023-05-10T02:45:26;100546.56;;;12.06;57.40
73558;BME280;61829;53.286;10.434;2023-05-10T02:47:54;100541.75;;;12.02;57.48
73558;BME280;61829;53.286;10.434;2023-05-10T02:50:21;100538.22;;;12.01;57.13
73558;BME280;61829;53.286;10.434;2023-05-10T02:52:47;100537.81;;;11.98;57.75
73558;BME280;61829;53.286;10.434;2023-05-10T02:55:16;100539.03;;;11.95;57.81
73558;BME280;61829;53.286;10.434;2023-05-10T02:57:57;100536.94;;;11.90;58.31
73558;BME280;61829;53.286;10.434;2023-05-10T03:00:24;100534.63;;;11.87;58.10
73558;BME280;61829;53.286;10.434;2023-05-10T03:02:50;100529.59;;;11.84;58.44
73558;BME280;61829;53.286;10.434;2023-05-10T03:05:20;100530.84;;;11.82;58.29
73558;BME280;61829;53.286;10.434;2023-05-10T03:07:46;100533.53;;;11.82;58.42
73558;BME280;61829;53.286;10.434;2023-05-10T03:10:12;100525.00;;;11.78;58.58
73558;BME280;61829;53.286;10.434;2023-05-10T03:20:47;100524.94;;;11.72;59.42
73558;BME280;61829;53.286;10.434;2023-05-10T03:25:40;100522.88;;;11.67;59.51
73558;BME280;61829;53.286;10.434;2023-05-10T03:28:09;100530.53;;;11.63;59.64
73558;BME280;61829;53.286;10.434;2023-05-10T03:30:35;100526.16;;;11.62;59.54
73558;BME280;61829;53.286;10.434;2023-05-10T03:33:05;100517.41;;;11.60;59.70
73558;BME280;61829;53.286;10.434;2023-05-10T03:35:32;100526.56;;;11.59;59.73
73558;BME280;61829;53.286;10.434;2023-05-10T03:37:58;100528.00;;;11.55;60.38
73558;BME280;61829;53.286;10.434;2023-05-10T03:40:25;100520.72;;;11.56;59.74
73558;BME280;61829;53.286;10.434;2023-05-10T03:42:51;100520.31;;;11.52;60.18
73558;BME280;61829;53.286;10.434;2023-05-10T03:45:17;100525.69;;;11.52;60.05
73558;BME280;61829;53.286;10.434;2023-05-10T03:47:43;100525.69;;;11.52;60.68
73558;BME280;61829;53.286;10.434;2023-05-10T03:50:09;100519.25;;;11.53;60.14
73558;BME280;61829;53.286;10.434;2023-05-10T03:52:35;100523.63;;;11.54;60.54
73558;BME280;61829;53.286;10.434;2023-05-10T03:55:02;100518.88;;;11.56;60.36
73558;BME280;61829;53.286;10.434;2023-05-10T03:57:30;100524.91;;;11.58;60.41
73558;BME280;61829;53.286;10.434;2023-05-10T03:59:55;100520.13;;;11.60;60.12
73558;BME280;61829;53.286;10.434;2023-05-10T04:02:21;100517.66;;;11.65;60.53
73558;BME280;61829;53.286;10.434;2023-05-10T04:04:47;100528.06;;;11.68;59.97
73558;BME280;61829;53.286;10.434;2023-05-10T04:07:13;100528.69;;;11.71;60.32
73558;BME280;61829;53.286;10.434;2023-05-10T04:09:40;100521.03;;;11.74;60.00
73558;BME280;61829;53.286;10.434;2023-05-10T04:12:06;100521.84;;;11.75;59.46
73558;BME280;61829;53.286;10.434;2023-05-10T04:14:32;100530.00;;;11.81;60.01
73558;BME280;61829;53.286;10.434;2023-05-10T04:16:58;100529.25;;;11.94;59.79
73558;BME280;61829;53.286;10.434;2023-05-10T04:19:29;100526.19;;;12.10;59.18
73558;BME280;61829;53.286;10.434;2023-05-10T04:21:55;100528.13;;;12.23;58.62
73558;BME280;61829;53.286;10.434;2023-05-10T04:24:20;100520.25;;;12.35;58.39
73558;BME280;61829;53.286;10.434;2023-05-10T04:26:46;100524.44;;;12.51;57.70
73558;BME280;61829;53.286;10.434;2023-05-10T04:29:12;100521.56;;;12.66;57.23
73558;BME280;61829;53.286;10.434;2023-05-10T04:31:38;100526.56;;;12.75;56.74
73558;BME280;61829;53.286;10.434;2023-05-10T04:34:04;100525.94;;;12.80;56.45
73558;BME280;61829;53.286;10.434;2023-05-10T04:36:30;100523.66;;;12.84;56.72
73558;BME280;61829;53.286;10.434;2023-05-10T04:38:58;100515.13;;;12.93;56.13
73558;BME280;61829;53.286;10.434;2023-05-10T04:41:23;100521.56;;;12.99;56.35
73558;BME280;61829;53.286;10.434;2023-05-10T04:43:50;100521.59;;;13.06;56.10
73558;BME280;61829;53.286;10.434;2023-05-10T04:46:16;100526.97;;;13.12;55.81
73558;BME280;61829;53.286;10.434;2023-05-10T04:48:42;100523.44;;;13.18;55.65
73558;BME280;61829;53.286;10.434;2023-05-10T04:51:08;100519.53;;;13.28;55.45
73558;BME280;61829;53.286;10.434;2023-05-10T04:53:34;100513.25;;;13.40;54.87
73558;BME280;61829;53.286;10.434;2023-05-10T04:56:00;100519.03;;;13.57;54.28
73558;BME280;61829;53.286;10.434;2023-05-10T04:58:26;100519.97;;;13.89;53.37
73558;BME280;61829;53.286;10.434;2023-05-10T05:00:52;100522.34;;;14.18;53.03
73558;BME280;61829;53.286;10.434;2023-05-10T05:03:18;100526.75;;;14.57;52.29
73558;BME280;61829;53.286;10.434;2023-05-10T05:05:44;100527.94;;;14.93;50.70
73558;BME280;61829;53.286;10.434;2023-05-10T05:08:10;100518.75;;;14.94;50.30
73558;BME280;61829;53.286;10.434;2023-05-10T05:10:36;100527.66;;;14.76;50.93
73558;BME280;61829;53.286;10.434;2023-05-10T05:13:02;100528.66;;;14.81;50.68
73558;BME280;61829;53.286;10.434;2023-05-10T05:15:27;100526.00;;;15.25;50.08
73558;BME280;61829;53.286;10.434;2023-05-10T05:17:53;100520.13;;;15.71;48.70
73558;BME280;61829;53.286;10.434;2023-05-10T05:20:19;100520.78;;;16.04;47.82
73558;BME280;61829;53.286;10.434;2023-05-10T05:22:45;100513.84;;;16.38;47.26
73558;BME280;61829;53.286;10.434;2023-05-10T05:25:11;100519.97;;;16.75;46.13
73558;BME280;61829;53.286;10.434;2023-05-10T05:27:37;100518.28;;;17.04;45.45
73558;BME280;61829;53.286;10.434;2023-05-10T05:30:03;100519.94;;;17.17;44.70
73558;BME280;61829;53.286;10.434;2023-05-10T05:32:30;100517.34;;;17.22;45.12
73558;BME280;61829;53.286;10.434;2023-05-10T05:34:55;100509.53;;;17.26;44.47
73558;BME280;61829;53.286;10.434;2023-05-10T05:37:21;100514.59;;;17.46;44.19
73558;BME280;61829;53.286;10.434;2023-05-10T05:39:48;100516.38;;;17.64;43.96
73558;BME280;61829;53.286;10.434;2023-05-10T05:42:14;100524.44;;;17.35;44.22
73558;BME280;61829;53.286;10.434;2023-05-10T05:44:41;100535.81;;;17.09;44.65
73558;BME280;61829;53.286;10.434;2023-05-10T05:47:07;100531.44;;;16.96;44.89
73558;BME280;61829;53.286;10.434;2023-05-10T05:49:33;100526.88;;;16.78;45.33
73558;BME280;61829;53.286;10.434;2023-05-10T05:52:03;100532.44;;;16.83;45.75
73558;BME280;61829;53.286;10.434;2023-05-10T05:54:29;100527.56;;;16.73;45.36
73558;BME280;61829;53.286;10.434;2023-05-10T05:56:57;100518.63;;;16.85;45.66
73558;BME280;61829;53.286;10.434;2023-05-10T05:59:24;100530.00;;;17.17;45.48
73558;BME280;61829;53.286;10.434;2023-05-10T06:01:50;100522.22;;;17.44;45.27
73558;BME280;61829;53.286;10.434;2023-05-10T06:04:17;100526.09;;;17.48;45.23
73558;BME280;61829;53.286;10.434;2023-05-10T06:06:43;100531.34;;;17.49;44.20
73558;BME280;61829;53.286;10.434;2023-05-10T06:09:09;100527.53;;;17.50;44.93
73558;BME280;61829;53.286;10.434;2023-05-10T06:11:37;100534.06;;;17.49;44.89
73558;BME280;61829;53.286;10.434;2023-05-10T06:14:03;100532.50;;;17.30;44.82
73558;BME280;61829;53.286;10.434;2023-05-10T06:16:31;100536.88;;;17.08;45.17
73558;BME280;61829;53.286;10.434;2023-05-10T06:18:57;100548.31;;;16.86;45.71
73558;BME280;61829;53.286;10.434;2023-05-10T06:21:23;100542.59;;;16.76;45.67
73558;BME280;61829;53.286;10.434;2023-05-10T06:23:48;100544.28;;;16.58;46.67
73558;BME280;61829;53.286;10.434;2023-05-10T06:26:14;100545.25;;;16.64;46.62
73558;BME280;61829;53.286;10.434;2023-05-10T06:28:40;100541.94;;;17.04;46.13
73558;BME280;61829;53.286;10.434;2023-05-10T06:31:06;100543.41;;;17.54;45.16
73558;BME280;61829;53.286;10.434;2023-05-10T06:33:33;100550.03;;;17.81;44.02
73558;BME280;61829;53.286;10.434;2023-05-10T06:35:59;100538.97;;;18.28;43.60
73558;BME280;61829;53.286;10.434;2023-05-10T06:38:24;100538.09;;;18.51;43.22
73558;BME280;61829;53.286;10.434;2023-05-10T06:40:50;100552.41;;;18.30;43.63
73558;BME280;61829;53.286;10.434;2023-05-10T06:43:16;100553.69;;;17.99;43.98
73558;BME280;61829;53.286;10.434;2023-05-10T06:45:42;100555.13;;;17.54;44.44
73558;BME280;61829;53.286;10.434;2023-05-10T06:48:08;100555.94;;;17.08;45.75
73558;BME280;61829;53.286;10.434;2023-05-10T06:50:34;100563.69;;;16.92;46.38
73558;BME280;61829;53.286;10.434;2023-05-10T06:53:00;100557.25;;;16.75;46.59
73558;BME280;61829;53.286;10.434;2023-05-10T06:55:28;100549.16;;;16.56;47.91
73558;BME280;61829;53.286;10.434;2023-05-10T06:57:54;100552.41;;;16.47;47.79
73558;BME280;61829;53.286;10.434;2023-05-10T07:00:21;100555.97;;;16.47;48.23
73558;BME280;61829;53.286;10.434;2023-05-10T07:02:47;100560.22;;;16.43;48.23
73558;BME280;61829;53.286;10.434;2023-05-10T07:05:13;100562.78;;;16.38;48.59
73558;BME280;61829;53.286;10.434;2023-05-10T07:07:39;100563.91;;;16.30;48.26
73558;BME280;61829;53.286;10.434;2023-05-10T07:10:06;100552.28;;;16.42;48.45
73558;BME280;61829;53.286;10.434;2023-05-10T07:12:32;100552.81;;;16.50;48.38
73558;BME280;61829;53.286;10.434;2023-05-10T07:14:58;100555.56;;;16.62;48.28
73558;BME280;61829;53.286;10.434;2023-05-10T07:17:27;100556.06;;;16.71;47.81
73558;BME280;61829;53.286;10.434;2023-05-10T07:19:53;100558.53;;;17.02;48.01
73558;BME280;61829;53.286;10.434;2023-05-10T07:22:19;100559.63;;;17.48;47.22
73558;BME280;61829;53.286;10.434;2023-05-10T07:24:45;100561.84;;;17.63;46.13
73558;BME280;61829;53.286;10.434;2023-05-10T07:27:11;100563.88;;;17.91;46.74
73558;BME280;61829;53.286;10.434;2023-05-10T07:29:38;100562.53;;;18.17;45.27
73558;BME280;61829;53.286;10.434;2023-05-10T07:32:05;100546.84;;;18.53;44.60
73558;BME280;61829;53.286;10.434;2023-05-10T07:34:32;100555.19;;;18.75;43.29
73558;BME280;61829;53.286;10.434;2023-05-10T07:36:58;100553.31;;;18.93;43.68
73558;BME280;61829;53.286;10.434;2023-05-10T07:39:25;100555.03;;;18.99;43.83
73558;BME280;61829;53.286;10.434;2023-05-10T07:41:51;100563.31;;;19.04;44.41
73558;BME280;61829;53.286;10.434;2023-05-10T07:44:17;100563.91;;;19.06;43.47
73558;BME280;61829;53.286;10.434;2023-05-10T07:46:46;100565.38;;;18.80;43.47
73558;BME280;61829;53.286;10.434;2023-05-10T07:49:13;100560.66;;;18.75;44.16
73558;BME280;61829;53.286;10.434;2023-05-10T07:51:39;100560.78;;;18.69;43.98
73558;BME280;61829;53.286;10.434;2023-05-10T07:54:05;100556.97;;;18.70;45.02
73558;BME280;61829;53.286;10.434;2023-05-10T07:56:32;100557.69;;;18.77;45.05
73558;BME280;61829;53.286;10.434;2023-05-10T07:58:59;100564.88;;;18.83;45.10
73558;BME280;61829;53.286;10.434;2023-05-10T08:01:26;100561.34;;;18.71;44.45
73558;BME280;61829;53.286;10.434;2023-05-10T08:03:55;100564.63;;;18.56;45.35
73558;BME280;61829;53.286;10.434;2023-05-10T08:06:21;100563.47;;;18.52;44.70
73558;BME280;61829;53.286;10.434;2023-05-10T08:08:48;100562.28;;;18.48;45.45
73558;BME280;61829;53.286;10.434;2023-05-10T08:11:19;100566.25;;;18.69;45.06
73558;BME280;61829;53.286;10.434;2023-05-10T08:13:48;100571.94;;;18.67;45.05
73558;BME280;61829;53.286;10.434;2023-05-10T08:16:14;100582.31;;;18.82;45.62
73558;BME280;61829;53.286;10.434;2023-05-10T08:18:41;100575.44;;;18.79;45.41
73558;BME280;61829;53.286;10.434;2023-05-10T08:21:07;100583.00;;;18.89;45.40
73558;BME280;61829;53.286;10.434;2023-05-10T08:23:33;100579.47;;;18.89;44.60
73558;BME280;61829;53.286;10.434;2023-05-10T08:25:59;100587.38;;;18.90;45.30
73558;BME280;61829;53.286;10.434;2023-05-10T08:28:26;100589.31;;;19.06;45.87
73558;BME280;61829;53.286;10.434;2023-05-10T08:30:52;100588.91;;;18.98;44.43
73558;BME280;61829;53.286;10.434;2023-05-10T08:33:18;100593.94;;;18.89;45.10
73558;BME280;61829;53.286;10.434;2023-05-10T08:35:44;100587.16;;;18.92;45.32
73558;BME280;61829;53.286;10.434;2023-05-10T08:38:10;100591.03;;;18.96;45.45
73558;BME280;61829;53.286;10.434;2023-05-10T08:40:37;100599.22;;;18.96;45.40
73558;BME280;61829;53.286;10.434;2023-05-10T08:43:08;100603.44;;;18.87;46.25
73558;BME280;61829;53.286;10.434;2023-05-10T08:45:39;100601.19;;;18.83;46.22
73558;BME280;61829;53.286;10.434;2023-05-10T08:48:08;100613.59;;;18.74;46.66
73558;BME280;61829;53.286;10.434;2023-05-10T08:50:39;100609.59;;;18.53;46.48
73558;BME280;61829;53.286;10.434;2023-05-10T08:53:13;100617.72;;;18.36;48.04
73558;BME280;61829;53.286;10.434;2023-05-10T08:55:40;100628.19;;;18.28;47.94
73558;BME280;61829;53.286;10.434;2023-05-10T08:58:08;100635.06;;;18.30;48.62
73558;BME280;61829;53.286;10.434;2023-05-10T09:00:35;100632.69;;;18.22;48.53
73558;BME280;61829;53.286;10.434;2023-05-10T09:03:04;100637.34;;;18.10;48.75
73558;BME280;61829;53.286;10.434;2023-05-10T09:05:30;100640.94;;;17.99;49.96
73558;BME280;61829;53.286;10.434;2023-05-10T09:07:56;100636.19;;;17.94;49.70
73558;BME280;61829;53.286;10.434;2023-05-10T09:10:25;100638.69;;;17.95;50.02
73558;BME280;61829;53.286;10.434;2023-05-10T09:12:53;100646.94;;;17.77;49.95
73558;BME280;61829;53.286;10.434;2023-05-10T09:15:21;100637.81;;;17.71;50.74
73558;BME280;61829;53.286;10.434;2023-05-10T09:17:48;100641.13;;;17.73;50.05
73558;BME280;61829;53.286;10.434;2023-05-10T09:20:15;100647.19;;;17.64;50.01
73558;BME280;61829;53.286;10.434;2023-05-10T09:22:43;100640.53;;;17.60;50.50
73558;BME280;61829;53.286;10.434;2023-05-10T09:25:10;100649.19;;;17.57;50.68
73558;BME280;61829;53.286;10.434;2023-05-10T09:27:40;100653.22;;;17.54;51.09
73558;BME280;61829;53.286;10.434;2023-05-10T09:30:07;100643.50;;;17.58;51.25
73558;BME280;61829;53.286;10.434;2023-05-10T09:32:42;100646.34;;;17.63;51.14
73558;BME280;61829;53.286;10.434;2023-05-10T09:35:13;100649.56;;;17.72;51.34
73558;BME280;61829;53.286;10.434;2023-05-10T09:37:40;100649.47;;;17.79;52.15
73558;BME280;61829;53.286;10.434;2023-05-10T09:40:14;100654.28;;;17.65;52.90
73558;BME280;61829;53.286;10.434;2023-05-10T09:43:06;100653.69;;;17.51;54.23
73558;BME280;61829;53.286;10.434;2023-05-10T09:45:33;100663.41;;;17.47;54.54
73558;BME280;61829;53.286;10.434;2023-05-10T09:48:02;100657.56;;;17.43;54.88
73558;BME280;61829;53.286;10.434;2023-05-10T09:50:29;100660.53;;;17.42;55.08
73558;BME280;61829;53.286;10.434;2023-05-10T09:52:59;100668.00;;;17.46;55.76
73558;BME280;61829;53.286;10.434;2023-05-10T09:58:07;100682.22;;;17.48;55.68
73558;BME280;61829;53.286;10.434;2023-05-10T10:00:37;100686.25;;;17.46;57.38
73558;BME280;61829;53.286;10.434;2023-05-10T10:03:04;100673.56;;;17.40;57.06
73558;BME280;61829;53.286;10.434;2023-05-10T10:05:31;100683.63;;;17.39;57.54
73558;BME280;61829;53.286;10.434;2023-05-10T10:07:58;100692.88;;;17.38;58.17
73558;BME280;61829;53.286;10.434;2023-05-10T10:10:26;100692.41;;;17.41;58.04
73558;BME280;61829;53.286;10.434;2023-05-10T10:12:54;100687.78;;;17.42;57.82
73558;BME280;61829;53.286;10.434;2023-05-10T10:15:20;100693.38;;;17.47;58.97
73558;BME280;61829;53.286;10.434;2023-05-10T10:17:48;100690.41;;;17.48;57.88
73558;BME280;61829;53.286;10.434;2023-05-10T10:20:15;100697.13;;;17.46;58.94
73558;BME280;61829;53.286;10.434;2023-05-10T10:22:41;100702.56;;;17.34;59.46
73558;BME280;61829;53.286;10.434;2023-05-10T10:25:11;100703.28;;;17.30;60.19
73558;BME280;61829;53.286;10.434;2023-05-10T10:30:43;100710.63;;;16.99;62.81
73558;BME280;61829;53.286;10.434;2023-05-10T10:36:03;100718.50;;;16.70;66.47
73558;BME280;61829;53.286;10.434;2023-05-10T10:38:58;100725.28;;;16.61;67.83
73558;BME280;61829;53.286;10.434;2023-05-10T10:41:32;100726.34;;;16.42;69.73
73558;BME280;61829;53.286;10.434;2023-05-10T10:47:32;100725.00;;;16.07;73.31
73558;BME280;61829;53.286;10.434;2023-05-10T10:52:36;100736.19;;;15.74;76.22
73558;BME280;61829;53.286;10.434;2023-05-10T10:55:06;100738.31;;;15.65;78.07
73558;BME280;61829;53.286;10.434;2023-05-10T11:02:48;100747.00;;;15.49;80.30
73558;BME280;61829;53.286;10.434;2023-05-10T11:07:54;100746.47;;;15.34;82.06
73558;BME280;61829;53.286;10.434;2023-05-10T11:10:22;100745.50;;;15.21;82.10
73558;BME280;61829;53.286;10.434;2023-05-10T11:13:02;100749.28;;;15.14;83.07
73558;BME280;61829;53.286;10.434;2023-05-10T11:15:38;100750.97;;;15.08;84.14
73558;BME280;61829;53.286;10.434;2023-05-10T11:18:25;100754.94;;;15.12;84.52
73558;BME280;61829;53.286;10.434;2023-05-10T11:20:52;100753.75;;;15.01;84.88
73558;BME280;61829;53.286;10.434;2023-05-10T11:23:20;100763.78;;;14.94;86.49
73558;BME280;61829;53.286;10.434;2023-05-10T11:25:48;100764.22;;;14.91;87.25
73558;BME280;61829;53.286;10.434;2023-05-10T11:28:16;100759.81;;;14.97;88.33
73558;BME280;61829;53.286;10.434;2023-05-10T11:30:43;100772.50;;;15.03;88.25
73558;BME280;61829;53.286;10.434;2023-05-10T11:33:15;100771.25;;;15.05;88.79
73558;BME280;61829;53.286;10.434;2023-05-10T11:35:41;100763.69;;;15.14;88.92
73558;BME280;61829;53.286;10.434;2023-05-10T11:38:08;100766.59;;;15.19;88.03
73558;BME280;61829;53.286;10.434;2023-05-10T11:40:36;100771.81;;;15.21;87.90
73558;BME280;61829;53.286;10.434;2023-05-10T11:43:03;100767.03;;;15.16;87.19
73558;BME280;61829;53.286;10.434;2023-05-10T11:45:32;100778.91;;;15.22;87.23
73558;BME280;61829;53.286;10.434;2023-05-10T11:47:58;100777.63;;;15.24;88.12
73558;BME280;61829;53.286;10.434;2023-05-10T11:50:25;100781.38;;;15.30;87.70
73558;BME280;61829;53.286;10.434;2023-05-10T11:52:56;100779.22;;;15.39;89.13
73558;BME280;61829;53.286;10.434;2023-05-10T11:55:22;100782.31;;;15.49;88.34
73558;BME280;61829;53.286;10.434;2023-05-10T11:57:53;100785.59;;;15.58;87.78
73558;BME280;61829;53.286;10.434;2023-05-10T12:00:20;100794.31;;;15.66;86.75
73558;BME280;61829;53.286;10.434;2023-05-10T12:02:47;100788.03;;;15.73;87.63
73558;BME280;61829;53.286;10.434;2023-05-10T12:05:14;100796.28;;;15.84;86.77
73558;BME280;61829;53.286;10.434;2023-05-10T12:07:40;100801.63;;;15.98;87.04
73558;BME280;61829;53.286;10.434;2023-05-10T12:10:11;100799.66;;;16.11;87.14
73558;BME280;61829;53.286;10.434;2023-05-10T12:12:44;100807.19;;;16.09;85.19
73558;BME280;61829;53.286;10.434;2023-05-10T12:15:11;100806.75;;;16.12;85.86
73558;BME280;61829;53.286;10.434;2023-05-10T12:17:38;100809.91;;;16.09;84.56
73558;BME280;61829;53.286;10.434;2023-05-10T12:20:23;100801.75;;;16.09;85.78
73558;BME280;61829;53.286;10.434;2023-05-10T12:22:51;100812.34;;;16.17;86.25
73558;BME280;61829;53.286;10.434;2023-05-10T12:25:19;100819.94;;;16.34;85.31
73558;BME280;61829;53.286;10.434;2023-05-10T12:27:53;100815.72;;;16.38;84.38
73558;BME280;61829;53.286;10.434;2023-05-10T12:30:25;100824.31;;;16.35;84.29
73558;BME280;61829;53.286;10.434;2023-05-10T12:32:52;100828.69;;;16.36;85.27
73558;BME280;61829;53.286;10.434;2023-05-10T12:35:19;100833.09;;;16.37;85.22
73558;BME280;61829;53.286;10.434;2023-05-10T12:37:51;100834.13;;;16.36;84.66
73558;BME280;61829;53.286;10.434;2023-05-10T12:40:17;100830.00;;;16.33;84.61
73558;BME280;61829;53.286;10.434;2023-05-10T12:42:43;100835.66;;;16.32;84.64
73558;BME280;61829;53.286;10.434;2023-05-10T12:45:11;100836.28;;;16.34;84.41
73558;BME280;61829;53.286;10.434;2023-05-10T12:47:39;100830.81;;;16.34;83.83
73558;BME280;61829;53.286;10.434;2023-05-10T12:50:06;100839.44;;;16.31;83.44
73558;BME280;61829;53.286;10.434;2023-05-10T12:52:32;100837.31;;;16.33;83.26
73558;BME280;61829;53.286;10.434;2023-05-10T12:54:59;100833.13;;;16.30;83.73
73558;BME280;61829;53.286;10.434;2023-05-10T12:57:25;100838.81;;;16.29;84.20
73558;BME280;61829;53.286;10.434;2023-05-10T12:59:51;100835.28;;;16.28;84.18
73558;BME280;61829;53.286;10.434;2023-05-10T13:02:17;100843.63;;;16.27;85.55
73558;BME280;61829;53.286;10.434;2023-05-10T13:04:45;100844.47;;;16.27;84.38
73558;BME280;61829;53.286;10.434;2023-05-10T13:07:12;100843.75;;;16.38;84.76
73558;BME280;61829;53.286;10.434;2023-05-10T13:09:39;100848.63;;;16.55;84.61
73558;BME280;61829;53.286;10.434;2023-05-10T13:12:08;100844.41;;;16.59;84.85
73558;BME280;61829;53.286;10.434;2023-05-10T13:14:34;100833.66;;;16.64;83.06
73558;BME280;61829;53.286;10.434;2023-05-10T13:17:00;100839.50;;;16.68;81.67
73558;BME280;61829;53.286;10.434;2023-05-10T13:19:26;100839.50;;;16.68;80.67
73558;BME280;61829;53.286;10.434;2023-05-10T13:21:51;100839.97;;;16.65;82.86
73558;BME280;61829;53.286;10.434;2023-05-10T13:24:17;100841.31;;;16.74;81.34
73558;BME280;61829;53.286;10.434;2023-05-10T13:26:43;100837.34;;;16.76;80.49
73558;BME280;61829;53.286;10.434;2023-05-10T13:29:11;100845.53;;;16.76;81.57
73558;BME280;61829;53.286;10.434;2023-05-10T13:31:36;100844.25;;;16.79;78.70
73558;BME280;61829;53.286;10.434;2023-05-10T13:34:05;100840.59;;;16.85;80.93
73558;BME280;61829;53.286;10.434;2023-05-10T13:36:30;100837.88;;;17.03;80.42
73558;BME280;61829;53.286;10.434;2023-05-10T13:38:57;100839.84;;;17.15;80.81